Aérodrome :
LOGIN :

S'inscrire | Disclaimer

   EN    FR    IT 

 










Légende :    VFR   VFR Marginal   IFR   IFR Intensif   IFR Très Intensif
Visi : 
Plafond : 
>= 8 km
>= 3000ft
5 à 8 km
1000 à 3000 ft
1500m à 5 km
500 à 1000 ft
800 à 1500m
200 à 500 ft
< 800m
< 200 ft
Symboles :   Orages  Brouillard  Fortes neiges  Fortes précipitations  Vent > 20 kt
SIGMETs :   Divers  Orages  Givrage  Turbulence  Onde Orograph.  Cendres Volcan.







- Altitude de l'aérodrome : 362 ft
- Code IATA : WAW


EPWA - Warsaw Okecie

DERNIER METAR :
  • 211630Z 07011KT 020V100 9999 FEW040CB 14/05 Q1017 NOSIG

METARs EXPIRÉS :
  • 211600Z 30009KT 270V330 9999 -SHRA BKN040CB 15/04 Q1017 NOSIG
  • 211530Z 32007KT 270V360 9999 -SHRA SCT040CB 16/03 Q1017 NOSIG
  • 211500Z 30011G22KT 270V330 9999 BKN040CB 15/05 Q1018 NOSIG
  • 211430Z 25007KT 200V300 9999 BKN060CB 17/01 Q1018 NOSIG
  • 211400Z 29007G17KT 240V330 9999 SCT060CB 18/02 Q1018 NOSIG

TAF TAF EPWA
Valide du 21 à 15h jusqu'au 22 à 15h UTC


211430Z 2115/2215 33008KT CAVOK
TEMPO 2115/2121 VRB15G25KT -SHRA BKN030CB
BECMG 2117/2119 04010KT
PROB40
TEMPO 2200/2207 BKN007 BKN014
BECMG 2203/2206 10011KT
TEMPO 2211/2215 11016G26KT
Pas de NOTAMs connus pour ce terrain.



MET'MAP, la Météo Aéronautique d'un coup d'oeil ! - Copyright ORBIFLY Décembre 2007 - Disclaimer

ORBIFLY MET'MAP TEAM :

Programmation & Développement : Alexandra Zaïnal
Conception & Développement : Baudouin d'Aumeries
Co-Programmation & Développement : Marc-Olivier Méhu
Soutien technique & logistique : Manuel Goepfert

Contact : metmap@orbifly.com




SOURCES & CREDITS :

   NOAA